createdAt,value
2018-05-19T00:01:26.888Z,78.09
2018-05-19T00:03:55.030Z,77.75
2018-05-19T00:06:23.213Z,77.52
2018-05-19T00:08:51.368Z,77.75
2018-05-19T00:11:19.527Z,77.79
2018-05-19T00:13:47.702Z,77.79
2018-05-19T00:16:17.141Z,78.01
2018-05-19T00:18:45.373Z,78.76
2018-05-19T00:21:13.513Z,78.80
2018-05-19T00:23:41.691Z,79.47
2018-05-19T00:26:11.963Z,79.62
2018-05-19T00:28:40.117Z,79.97
2018-05-19T00:31:09.597Z,79.75
2018-05-19T00:33:37.769Z,80.33
2018-05-19T00:36:05.929Z,80.32
2018-05-19T00:38:34.089Z,80.45
2018-05-19T00:41:02.234Z,80.38
2018-05-19T00:43:30.879Z,80.74
2018-05-19T00:45:59.033Z,80.80
2018-05-19T00:48:30.248Z,81.03
2018-05-19T00:53:32.109Z,81.33
2018-05-19T00:56:00.963Z,81.57
2018-05-19T00:58:30.015Z,82.02
2018-05-19T01:00:58.182Z,82.05
2018-05-19T01:03:26.331Z,82.31
2018-05-19T01:05:54.484Z,82.56
2018-05-19T01:08:22.638Z,82.95
2018-05-19T01:10:50.821Z,82.58
2018-05-19T01:13:18.960Z,82.59
2018-05-19T01:15:47.122Z,82.37
2018-05-19T01:18:15.291Z,82.38
2018-05-19T01:20:43.449Z,82.48
2018-05-19T01:23:12.445Z,82.14
2018-05-19T01:25:40.611Z,82.35
2018-05-19T01:28:08.759Z,82.47
2018-05-19T01:30:39.276Z,82.19
2018-05-19T01:33:07.443Z,82.30
2018-05-19T01:35:35.597Z,82.63
2018-05-19T01:38:04.093Z,82.21
2018-05-19T01:40:32.262Z,82.76
2018-05-19T01:43:02.548Z,82.82
2018-05-19T01:45:31.544Z,82.94
2018-05-19T01:47:59.688Z,83.14
2018-05-19T01:50:27.843Z,83.51
2018-05-19T01:52:56.004Z,83.68
2018-05-19T01:55:24.164Z,83.45
2018-05-19T01:57:52.325Z,83.32
2018-05-19T02:00:20.510Z,83.30
2018-05-19T02:02:48.674Z,83.57
2018-05-19T02:05:16.821Z,83.57
2018-05-19T02:07:44.991Z,83.67
2018-05-19T02:10:16.850Z,83.48
2018-05-19T02:12:45.009Z,83.61
2018-05-19T02:15:13.169Z,83.29
2018-05-19T02:17:44.946Z,83.87
2018-05-19T02:20:13.086Z,84.08
2018-05-19T02:22:41.245Z,84.17
2018-05-19T02:25:12.451Z,84.22
2018-05-19T02:27:40.599Z,84.05
2018-05-19T02:30:09.772Z,84.07
2018-05-19T02:32:37.918Z,84.23
2018-05-19T02:35:06.088Z,84.54
2018-05-19T02:37:34.220Z,84.92
2018-05-19T02:40:02.415Z,85.02
2018-05-19T02:42:30.561Z,85.27
2018-05-19T02:44:58.711Z,85.32
2018-05-19T02:47:26.883Z,85.25
2018-05-19T02:49:55.935Z,85.42
2018-05-19T02:52:24.091Z,85.42
2018-05-19T02:54:52.230Z,85.48
2018-05-19T02:57:20.435Z,85.48
2018-05-19T02:59:52.095Z,85.38
2018-05-19T03:02:20.255Z,85.75
2018-05-19T03:04:48.404Z,85.69
2018-05-19T03:07:16.564Z,85.42
2018-05-19T03:09:47.692Z,85.32
2018-05-19T03:12:15.879Z,85.23
2018-05-19T03:14:43.998Z,85.33
2018-05-19T03:17:12.184Z,85.25
2018-05-19T03:19:40.335Z,85.11
2018-05-19T03:22:15.787Z,85.07
2018-05-19T03:24:47.741Z,85.24
2018-05-19T03:27:15.881Z,85.27
2018-05-19T03:29:52.920Z,85.36
2018-05-19T03:32:21.058Z,85.31
2018-05-19T03:34:49.220Z,85.11
2018-05-19T03:37:17.380Z,84.79
2018-05-19T03:39:45.547Z,84.51
2018-05-19T03:42:13.686Z,84.77
2018-05-19T03:44:41.867Z,84.69
2018-05-19T03:49:42.766Z,85.23
2018-05-19T03:52:16.859Z,85.29
2018-05-19T03:54:45.901Z,85.08
2018-05-19T03:57:28.301Z,84.87
2018-05-19T04:00:08.337Z,84.70
2018-05-19T04:02:37.204Z,84.72
2018-05-19T04:05:05.355Z,85.07
2018-05-19T04:07:34.081Z,85.02
2018-05-19T04:10:02.927Z,85.41
2018-05-19T04:12:31.091Z,84.91
2018-05-19T04:14:59.243Z,84.43
2018-05-19T04:17:27.399Z,84.08
2018-05-19T04:19:56.059Z,84.08
2018-05-19T04:22:24.235Z,83.93
2018-05-19T04:24:52.383Z,83.91
2018-05-19T04:27:20.537Z,84.09
2018-05-19T04:29:48.689Z,84.20
2018-05-19T04:32:16.853Z,84.67
2018-05-19T04:34:45.019Z,84.44
2018-05-19T04:37:13.156Z,84.22
2018-05-19T04:39:41.316Z,84.04
2018-05-19T04:42:10.288Z,83.95
2018-05-19T04:44:41.384Z,84.07
2018-05-19T04:47:09.547Z,83.87
2018-05-19T04:49:37.753Z,83.59
2018-05-19T04:52:05.909Z,84.04
2018-05-19T04:54:34.097Z,83.97
2018-05-19T04:57:02.277Z,84.35
2018-05-19T04:59:30.482Z,83.98
2018-05-19T05:01:58.647Z,83.66
2018-05-19T05:04:26.804Z,83.27
2018-05-19T05:06:54.960Z,83.37
2018-05-19T05:09:26.873Z,83.64
2018-05-19T05:11:55.041Z,83.38
2018-05-19T05:14:24.089Z,82.55
2018-05-19T05:16:52.255Z,81.89
2018-05-19T05:19:20.430Z,82.09
2018-05-19T05:21:51.527Z,82.05
2018-05-19T05:24:19.722Z,81.85
2018-05-19T05:26:47.883Z,82.03
2018-05-19T05:29:19.048Z,82.60
2018-05-19T05:31:47.174Z,82.26
2018-05-19T05:34:15.376Z,82.29
2018-05-19T05:36:46.966Z,82.35
2018-05-19T05:39:18.498Z,82.45
2018-05-19T05:41:46.648Z,82.34
2018-05-19T05:44:14.823Z,82.99
2018-05-19T05:46:42.986Z,81.91
2018-05-19T05:49:16.872Z,82.16
2018-05-19T05:51:46.352Z,81.80
2018-05-19T05:54:17.792Z,81.64
2018-05-19T05:56:45.964Z,81.27
2018-05-19T05:59:14.118Z,81.22
2018-05-19T06:01:43.936Z,81.09
2018-05-19T06:04:12.087Z,80.97
2018-05-19T06:06:40.257Z,80.77
2018-05-19T06:09:08.436Z,79.96
2018-05-19T06:11:36.613Z,79.53
2018-05-19T06:14:04.782Z,79.86
2018-05-19T06:16:32.953Z,79.80
2018-05-19T06:19:01.137Z,79.61
2018-05-19T06:21:29.288Z,78.85
2018-05-19T06:23:57.429Z,79.10
2018-05-19T06:26:28.981Z,79.18
2018-05-19T06:28:57.147Z,79.56
2018-05-19T06:31:26.339Z,79.10
2018-05-19T06:33:54.522Z,78.50
2018-05-19T06:36:22.680Z,78.43
2018-05-19T06:38:50.854Z,78.40
2018-05-19T06:41:19.000Z,78.00
2018-05-19T06:43:47.176Z,77.87
2018-05-19T06:46:16.489Z,77.52
2018-05-19T06:48:44.660Z,76.65
2018-05-19T06:51:12.859Z,76.95
2018-05-19T06:53:41.023Z,76.17
2018-05-19T06:56:09.174Z,76.28
2018-05-19T06:58:37.879Z,76.14
2018-05-19T07:01:12.500Z,75.74
2018-05-19T07:03:40.670Z,74.91
2018-05-19T07:06:08.810Z,75.33
2018-05-19T07:08:36.971Z,74.84
2018-05-19T07:11:05.126Z,74.39
2018-05-19T07:13:33.278Z,73.97
2018-05-19T07:16:01.467Z,73.36
2018-05-19T07:18:29.603Z,73.27
2018-05-19T07:20:57.771Z,73.29
2018-05-19T07:23:25.931Z,72.78
2018-05-19T07:25:54.088Z,72.83
2018-05-19T07:28:22.279Z,72.85
2018-05-19T07:30:50.453Z,73.19
2018-05-19T07:33:18.615Z,72.97
2018-05-19T07:35:46.860Z,72.55
2018-05-19T07:38:14.971Z,72.11
2018-05-19T07:40:43.125Z,71.05
2018-05-19T07:43:11.300Z,72.04
2018-05-19T07:45:39.472Z,72.14
2018-05-19T07:48:07.652Z,71.56
2018-05-19T07:50:35.833Z,71.26
2018-05-19T07:53:03.991Z,71.49
2018-05-19T07:55:32.177Z,71.33
2018-05-19T07:58:00.343Z,71.14
2018-05-19T08:00:28.509Z,70.62
2018-05-19T08:02:56.657Z,69.63
2018-05-19T08:05:24.831Z,70.28
2018-05-19T08:07:52.993Z,69.49
2018-05-19T08:10:21.175Z,68.94
2018-05-19T08:12:49.341Z,69.59
2018-05-19T08:15:17.509Z,69.64
2018-05-19T08:17:45.666Z,69.24
2018-05-19T08:20:13.821Z,69.67
2018-05-19T08:22:42.349Z,70.97
2018-05-19T08:25:10.992Z,70.42
2018-05-19T08:27:39.148Z,70.19
2018-05-19T08:30:07.338Z,69.91
2018-05-19T08:32:35.625Z,70.22
2018-05-19T08:35:03.785Z,69.36
2018-05-19T08:37:31.961Z,69.46
2018-05-19T08:40:00.140Z,70.17
2018-05-19T08:42:28.328Z,69.89
2018-05-19T08:44:58.699Z,69.90
2018-05-19T08:47:26.846Z,70.45
2018-05-19T08:49:55.023Z,70.27
2018-05-19T08:52:23.231Z,69.30
2018-05-19T08:54:51.406Z,70.14
2018-05-19T08:57:19.594Z,69.13
2018-05-19T08:59:47.748Z,69.08
2018-05-19T09:02:15.922Z,68.88
2018-05-19T09:04:44.114Z,68.99
2018-05-19T09:07:12.287Z,68.07
2018-05-19T09:09:40.472Z,67.68
2018-05-19T09:12:08.659Z,67.22
2018-05-19T09:14:37.789Z,66.44
2018-05-19T09:17:05.967Z,66.95
2018-05-19T09:19:34.114Z,67.55
2018-05-19T09:22:02.322Z,67.66
2018-05-19T09:24:30.492Z,65.83
2018-05-19T09:26:58.650Z,66.70
2018-05-19T09:29:28.162Z,65.90
2018-05-19T09:31:56.335Z,65.60
2018-05-19T09:34:28.437Z,65.57
2018-05-19T09:36:56.625Z,64.96
2018-05-19T09:39:24.784Z,66.09
2018-05-19T09:41:52.971Z,64.04
2018-05-19T09:44:25.792Z,65.66
2018-05-19T09:46:53.948Z,65.82
2018-05-19T09:49:22.109Z,60.88
2018-05-19T09:51:50.264Z,59.88
2018-05-19T09:54:18.445Z,59.74
2018-05-19T09:56:46.602Z,62.14
2018-05-19T09:59:14.785Z,61.19
2018-05-19T10:01:42.936Z,58.29
2018-05-19T10:04:11.105Z,57.53
2018-05-19T10:06:39.254Z,57.58
2018-05-19T10:09:07.420Z,57.45
2018-05-19T10:11:36.228Z,57.27
2018-05-19T10:14:04.421Z,57.86
2018-05-19T10:16:32.571Z,55.48
2018-05-19T10:19:00.720Z,55.70
2018-05-19T10:21:28.877Z,53.88
2018-05-19T10:23:57.016Z,54.10
2018-05-19T10:26:25.194Z,55.23
2018-05-19T10:28:53.335Z,55.19
2018-05-19T10:31:21.518Z,54.97
2018-05-19T10:33:49.671Z,56.50
2018-05-19T10:36:17.858Z,54.30
2018-05-19T10:38:46.634Z,56.24
2018-05-19T10:41:14.796Z,55.35
2018-05-19T10:43:42.952Z,56.29
2018-05-19T10:46:17.162Z,54.25
2018-05-19T10:48:45.351Z,52.41
2018-05-19T10:51:13.499Z,50.85
2018-05-19T10:53:41.676Z,52.28
2018-05-19T10:56:09.834Z,50.45
2018-05-19T10:58:37.998Z,50.97
2018-05-19T11:01:06.608Z,51.03
2018-05-19T11:03:34.752Z,49.44
2018-05-19T11:06:02.911Z,48.84
2018-05-19T11:08:31.070Z,48.00
2018-05-19T11:10:59.239Z,46.45
2018-05-19T11:13:27.478Z,48.06
2018-05-19T11:15:56.355Z,49.75
2018-05-19T11:18:24.538Z,51.68
2018-05-19T11:20:52.689Z,52.51
2018-05-19T11:23:20.841Z,52.24
2018-05-19T11:25:49.034Z,49.67
2018-05-19T11:28:17.174Z,48.42
2018-05-19T11:30:45.318Z,48.61
2018-05-19T11:33:13.477Z,49.68
2018-05-19T11:35:41.660Z,51.81
2018-05-19T11:38:09.796Z,51.38
2018-05-19T11:40:37.976Z,50.38
2018-05-19T11:43:06.920Z,50.13
2018-05-19T11:45:35.101Z,52.64
2018-05-19T11:48:03.252Z,49.54
2018-05-19T11:50:34.395Z,51.05
2018-05-19T11:53:02.549Z,49.86
2018-05-19T11:55:33.955Z,50.88
2018-05-19T11:58:02.117Z,49.22
2018-05-19T12:00:30.325Z,48.25
2018-05-19T12:02:58.484Z,47.27
2018-05-19T12:05:26.637Z,48.28
2018-05-19T12:07:54.823Z,46.31
2018-05-19T12:10:22.971Z,46.88
2018-05-19T12:12:51.147Z,48.52
2018-05-19T12:15:19.327Z,49.67
2018-05-19T12:17:47.478Z,50.04
2018-05-19T12:20:15.659Z,50.00
2018-05-19T12:22:43.903Z,50.98
2018-05-19T12:25:16.165Z,49.31
2018-05-19T12:27:44.320Z,50.12
2018-05-19T12:30:13.251Z,50.21
2018-05-19T12:32:42.641Z,49.92
2018-05-19T12:35:17.466Z,49.72
2018-05-19T12:37:45.626Z,48.92
2018-05-19T12:40:13.806Z,50.60
2018-05-19T12:42:44.625Z,50.11
2018-05-19T12:45:12.792Z,51.19
2018-05-19T12:47:40.971Z,49.95
2018-05-19T12:50:09.117Z,48.87
2018-05-19T12:52:37.269Z,48.86
2018-05-19T12:55:05.409Z,49.16
2018-05-19T12:57:36.596Z,48.08
2018-05-19T13:00:04.752Z,47.14
2018-05-19T13:02:32.924Z,46.57
2018-05-19T13:05:01.076Z,47.05
2018-05-19T13:07:29.231Z,45.91
2018-05-19T13:09:57.392Z,46.61
2018-05-19T13:12:25.641Z,44.79
2018-05-19T13:14:53.721Z,45.54
2018-05-19T13:17:21.863Z,46.13
2018-05-19T13:19:50.025Z,45.53
2018-05-19T13:22:18.204Z,44.45
2018-05-19T13:24:46.350Z,44.83
2018-05-19T13:27:14.499Z,44.82
2018-05-19T13:29:42.661Z,46.56
2018-05-19T13:32:10.813Z,45.91
2018-05-19T13:34:39.029Z,47.10
2018-05-19T13:37:07.208Z,48.32
2018-05-19T13:39:35.351Z,48.74
2018-05-19T13:42:03.523Z,50.48
2018-05-19T13:44:31.683Z,52.18
2018-05-19T13:46:59.839Z,53.18
2018-05-19T13:49:27.979Z,52.98
2018-05-19T13:51:56.119Z,53.24
2018-05-19T13:54:24.313Z,53.10
2018-05-19T13:56:52.451Z,52.34
2018-05-19T13:59:20.636Z,52.54
2018-05-19T14:01:48.794Z,53.16
2018-05-19T14:04:17.357Z,53.37
2018-05-19T14:06:45.502Z,53.59
2018-05-19T14:09:13.659Z,53.35
2018-05-19T14:11:41.805Z,53.74
2018-05-19T14:14:14.698Z,52.50
2018-05-19T14:16:42.855Z,52.09
2018-05-19T14:19:11.026Z,52.73
2018-05-19T14:21:39.165Z,52.89
2018-05-19T14:24:08.996Z,53.93
2018-05-19T14:26:37.136Z,54.52
2018-05-19T14:29:05.284Z,55.19
2018-05-19T14:31:33.845Z,55.31
2018-05-19T14:34:01.982Z,55.09
2018-05-19T14:36:30.139Z,56.33
2018-05-19T14:38:58.274Z,54.28
2018-05-19T14:41:26.452Z,56.00
2018-05-19T14:43:54.616Z,57.23
2018-05-19T14:46:22.784Z,57.95
2018-05-19T14:48:50.943Z,57.06
2018-05-19T14:51:19.107Z,56.56
2018-05-19T14:53:47.301Z,56.79
2018-05-19T14:56:15.433Z,56.63
2018-05-19T14:58:43.597Z,57.13
2018-05-19T15:01:11.749Z,57.13
2018-05-19T15:03:40.927Z,57.37
2018-05-19T15:06:09.089Z,57.23
2018-05-19T15:08:37.234Z,57.68
2018-05-19T15:11:05.379Z,57.04
2018-05-19T15:13:33.564Z,57.07
2018-05-19T15:16:01.739Z,57.54
2018-05-19T15:18:29.866Z,57.85
2018-05-19T15:20:58.111Z,57.63
2018-05-19T15:23:26.252Z,58.92
2018-05-19T15:25:54.415Z,58.41
2018-05-19T15:28:22.592Z,58.51
2018-05-19T15:30:50.749Z,58.99
2018-05-19T15:33:18.898Z,58.99
2018-05-19T15:35:47.069Z,59.37
2018-05-19T15:38:18.632Z,59.69
2018-05-19T15:40:46.791Z,60.10
2018-05-19T15:43:14.956Z,59.56
2018-05-19T15:45:43.120Z,59.13
2018-05-19T15:48:11.584Z,58.93
2018-05-19T15:50:40.790Z,59.08
2018-05-19T15:53:09.078Z,59.11
2018-05-19T15:55:37.236Z,59.48
2018-05-19T15:58:05.466Z,58.16
2018-05-19T16:00:33.634Z,58.72
2018-05-19T16:03:01.797Z,58.71
2018-05-19T16:05:29.961Z,58.06
2018-05-19T16:07:58.119Z,58.70
2018-05-19T16:10:26.323Z,59.04
2018-05-19T16:12:54.496Z,58.46
2018-05-19T16:15:22.648Z,58.86
2018-05-19T16:17:50.826Z,58.37
2018-05-19T16:20:18.978Z,58.20
2018-05-19T16:22:47.155Z,58.03
2018-05-19T16:25:15.335Z,58.29
2018-05-19T16:27:43.470Z,58.67
2018-05-19T16:30:13.117Z,59.44
2018-05-19T16:32:43.039Z,58.97
2018-05-19T16:35:11.150Z,59.07
2018-05-19T16:37:39.325Z,59.60
2018-05-19T16:40:07.471Z,60.52
2018-05-19T16:42:39.345Z,61.62
2018-05-19T16:45:07.475Z,61.84
2018-05-19T16:47:35.639Z,62.26
2018-05-19T16:50:03.796Z,62.12
2018-05-19T16:52:31.954Z,62.61
2018-05-19T16:55:00.122Z,62.10
2018-05-19T16:57:28.281Z,62.33
2018-05-19T16:59:56.435Z,62.48
2018-05-19T17:02:24.600Z,63.11
2018-05-19T17:04:52.735Z,62.16
2018-05-19T17:07:20.894Z,62.21
2018-05-19T17:09:49.064Z,61.95
2018-05-19T17:12:17.239Z,62.18
2018-05-19T17:14:45.397Z,61.79
2018-05-19T17:17:13.546Z,62.14
2018-05-19T17:19:41.711Z,61.46
2018-05-19T17:22:09.868Z,61.05
2018-05-19T17:24:38.013Z,60.75
2018-05-19T17:27:06.177Z,61.05
2018-05-19T17:29:34.351Z,61.10
2018-05-19T17:32:02.491Z,61.31
2018-05-19T17:34:30.637Z,61.69
2018-05-19T17:36:58.839Z,61.28
2018-05-19T17:39:27.107Z,61.82
2018-05-19T17:41:58.239Z,61.97
2018-05-19T17:44:26.388Z,62.28
2018-05-19T17:46:54.567Z,62.19
2018-05-19T17:51:55.729Z,61.93
2018-05-19T17:54:23.929Z,62.32
2018-05-19T17:56:52.099Z,62.37
2018-05-19T17:59:20.246Z,62.80
2018-05-19T18:01:48.405Z,62.83
2018-05-19T18:04:16.550Z,63.20
2018-05-19T18:06:44.694Z,62.78
2018-05-19T18:09:16.255Z,63.01
2018-05-19T18:11:44.401Z,63.42
2018-05-19T18:14:14.358Z,63.76
2018-05-19T18:16:45.446Z,63.92
2018-05-19T18:19:13.611Z,64.04
2018-05-19T18:21:41.756Z,64.53
2018-05-19T18:24:17.825Z,64.80
2018-05-19T18:26:47.668Z,65.45
2018-05-19T18:29:15.856Z,65.54
2018-05-19T18:31:44.010Z,66.08
2018-05-19T18:34:12.159Z,66.26
2018-05-19T18:36:40.326Z,66.85
2018-05-19T18:39:08.480Z,66.95
2018-05-19T18:41:36.673Z,67.67
2018-05-19T18:44:04.816Z,67.92
2018-05-19T18:46:32.974Z,68.98
2018-05-19T18:49:01.127Z,69.58
2018-05-19T18:51:34.129Z,69.63
2018-05-19T18:54:02.271Z,69.93
2018-05-19T18:56:30.461Z,70.31
2018-05-19T18:59:00.425Z,71.11
2018-05-19T19:01:28.580Z,71.70
2018-05-19T19:03:56.808Z,71.60
2018-05-19T19:06:25.538Z,72.16
2018-05-19T19:08:53.766Z,72.49
2018-05-19T19:11:21.859Z,73.50
2018-05-19T19:13:50.827Z,74.94
2018-05-19T19:16:18.969Z,75.93
2018-05-19T19:18:47.138Z,76.87
2018-05-19T19:21:15.592Z,77.44
2018-05-19T19:23:43.758Z,77.97
2018-05-19T19:26:11.928Z,78.60
2018-05-19T19:28:40.054Z,78.93
2018-05-19T19:31:08.250Z,79.04
2018-05-19T19:33:36.416Z,79.58
2018-05-19T19:36:05.457Z,79.95
2018-05-19T19:38:33.630Z,80.33
2018-05-19T19:41:01.896Z,80.43
2018-05-19T19:43:29.960Z,80.71
2018-05-19T19:45:58.116Z,81.45
2018-05-19T19:48:26.284Z,82.05
2018-05-19T19:50:54.875Z,83.05
2018-05-19T19:53:23.015Z,83.55
2018-05-19T19:55:51.197Z,83.84
2018-05-19T19:58:19.333Z,84.38
2018-05-19T20:00:47.496Z,84.56
2018-05-19T20:03:15.649Z,84.52
2018-05-19T20:05:43.786Z,85.15
2018-05-19T20:08:14.963Z,86.00
2018-05-19T20:10:43.109Z,86.34
2018-05-19T20:13:11.272Z,86.81
2018-05-19T20:15:39.427Z,86.75
2018-05-19T20:18:07.577Z,87.04
2018-05-19T20:20:35.744Z,87.41
2018-05-19T20:23:03.928Z,87.55
2018-05-19T20:25:32.093Z,87.15
2018-05-19T20:28:00.232Z,87.13
2018-05-19T20:30:28.414Z,87.55
2018-05-19T20:32:56.566Z,88.05
2018-05-19T20:35:24.731Z,88.70
2018-05-19T20:37:52.878Z,88.89
2018-05-19T20:40:21.069Z,89.41
2018-05-19T20:42:49.238Z,89.91
2018-05-19T20:45:17.435Z,89.47
2018-05-19T20:47:45.599Z,89.75
2018-05-19T20:50:13.749Z,89.65
2018-05-19T20:52:41.941Z,90.08
2018-05-19T20:55:16.715Z,90.40
2018-05-19T20:57:44.841Z,90.38
2018-05-19T21:00:13.002Z,90.63
2018-05-19T21:02:41.176Z,90.43
2018-05-19T21:05:09.313Z,90.05
2018-05-19T21:07:38.118Z,89.61
2018-05-19T21:10:06.272Z,89.17
2018-05-19T21:12:37.757Z,88.96
2018-05-19T21:15:05.918Z,89.04
2018-05-19T21:17:34.085Z,89.64
2018-05-19T21:20:05.009Z,89.51
2018-05-19T21:22:33.183Z,89.23
2018-05-19T21:25:01.323Z,88.97
2018-05-19T21:27:29.487Z,88.49
2018-05-19T21:29:57.660Z,88.50
2018-05-19T21:32:25.861Z,88.53
2018-05-19T21:34:54.019Z,88.41
2018-05-19T21:37:22.177Z,88.09
2018-05-19T21:39:50.349Z,88.21
2018-05-19T21:42:18.483Z,88.16
2018-05-19T21:44:46.667Z,88.08
2018-05-19T21:47:14.826Z,88.24
2018-05-19T21:49:42.995Z,88.36
2018-05-19T21:52:18.018Z,88.21
2018-05-19T21:54:46.194Z,88.25
2018-05-19T21:57:14.383Z,88.27
2018-05-19T21:59:42.976Z,88.35
2018-05-19T22:02:11.157Z,88.81
2018-05-19T22:04:39.303Z,88.60
2018-05-19T22:07:07.486Z,88.98
2018-05-19T22:09:35.641Z,89.34
2018-05-19T22:12:03.835Z,89.59
2018-05-19T22:14:32.007Z,89.95
2018-05-19T22:17:00.172Z,90.54
2018-05-19T22:19:30.889Z,90.94
2018-05-19T22:21:59.689Z,90.72
2018-05-19T22:24:27.867Z,91.05
2018-05-19T22:26:56.034Z,91.36
2018-05-19T22:29:26.437Z,91.83
2018-05-19T22:31:54.599Z,92.23
2018-05-19T22:34:22.771Z,92.21
2018-05-19T22:36:50.934Z,92.01
2018-05-19T22:39:19.107Z,91.69
2018-05-19T22:41:47.243Z,91.99
2018-05-19T22:44:22.804Z,91.76
2018-05-19T22:46:50.953Z,91.58
2018-05-19T22:49:19.119Z,91.45
2018-05-19T22:51:47.265Z,91.26
2018-05-19T22:54:17.948Z,91.93
2018-05-19T22:56:46.107Z,91.95
2018-05-19T22:59:17.520Z,92.18
2018-05-19T23:01:45.703Z,91.97
2018-05-19T23:04:13.875Z,92.00
2018-05-19T23:06:42.063Z,92.69
2018-05-19T23:09:11.867Z,92.46
2018-05-19T23:11:40.029Z,92.43
2018-05-19T23:14:08.658Z,92.72
2018-05-19T23:16:36.840Z,93.25
2018-05-19T23:19:04.989Z,93.30
2018-05-19T23:21:33.163Z,93.42
2018-05-19T23:24:01.303Z,93.59
2018-05-19T23:26:30.238Z,93.61
2018-05-19T23:28:58.399Z,93.19
2018-05-19T23:31:30.413Z,92.87
2018-05-19T23:33:58.559Z,92.73
2018-05-19T23:36:26.730Z,92.86
2018-05-19T23:38:54.897Z,93.17
2018-05-19T23:41:23.087Z,93.20
2018-05-19T23:43:51.217Z,93.04
2018-05-19T23:46:19.380Z,93.20
2018-05-19T23:48:47.545Z,93.32
2018-05-19T23:51:23.643Z,93.05
2018-05-19T23:53:51.811Z,92.86
2018-05-19T23:56:19.953Z,92.76
2018-05-19T23:58:52.541Z,92.44
